createdAt,value
2019-04-22T13:41:31.059Z,19.80
2019-04-22T14:00:11.702Z,18.80
2019-04-22T14:25:34.570Z,18.70
2019-04-22T18:45:45.537Z,11.20
2019-04-22T18:50:26.527Z,11.10
2019-04-22T18:55:14.622Z,11.00
2019-04-22T18:59:46.428Z,11.00
2019-04-22T19:04:44.378Z,11.00
2019-04-22T19:10:01.591Z,11.00
2019-04-22T19:14:56.813Z,11.10
2019-04-22T19:19:54.121Z,11.10
2019-04-22T19:30:12.358Z,10.90
2019-04-22T19:35:29.924Z,10.80
2019-04-22T19:40:28.288Z,10.70
2019-04-22T19:45:26.528Z,10.60
2019-04-22T19:50:24.600Z,10.40
2019-04-22T19:55:12.740Z,10.30
2019-04-22T20:00:00.688Z,10.10
2019-04-22T20:05:05.835Z,10.00
2019-04-22T20:09:55.426Z,9.90
2019-04-22T20:14:43.595Z,9.80
2019-04-22T20:19:38.303Z,9.80
2019-04-22T20:24:02.058Z,9.70
2019-04-22T20:28:58.974Z,9.60
2019-04-22T20:33:54.553Z,9.70
2019-04-22T20:38:34.211Z,9.50
2019-04-22T20:43:29.266Z,9.50
2019-04-22T20:47:58.813Z,9.60
2019-04-22T20:52:59.234Z,9.60
2019-04-22T20:57:48.346Z,9.60
2019-04-22T21:02:23.538Z,9.70
2019-04-22T21:07:15.121Z,9.60
2019-04-22T21:11:56.550Z,9.40
2019-04-22T21:16:53.272Z,9.30
2019-04-22T21:21:37.744Z,9.30
2019-04-22T21:26:24.055Z,9.20
2019-04-22T21:31:17.161Z,9.30
2019-04-22T21:36:08.414Z,9.40
2019-04-22T21:40:47.539Z,9.30
2019-04-22T21:45:28.172Z,9.40
2019-04-22T21:55:10.289Z,9.40
2019-04-22T22:00:00.670Z,9.30
2019-04-22T22:04:38.604Z,9.10
2019-04-22T22:09:31.555Z,9.20
2019-04-22T22:14:20.828Z,9.20
2019-04-22T22:19:09.895Z,9.20
2019-04-22T22:23:59.636Z,9.10
2019-04-22T22:28:52.170Z,9.10
2019-04-22T22:33:33.346Z,9.00
2019-04-22T22:38:13.306Z,8.90
2019-04-22T22:42:45.662Z,8.80
2019-04-22T22:47:44.208Z,8.80
2019-04-22T22:52:53.587Z,8.90
2019-04-22T22:57:27.660Z,8.90
2019-04-22T23:02:06.049Z,9.00
2019-04-22T23:06:58.610Z,9.10
2019-04-22T23:12:05.983Z,9.10
2019-04-22T23:16:17.661Z,9.10
2019-04-22T23:20:59.013Z,9.10
2019-04-22T23:26:22.673Z,9.10
2019-04-22T23:30:56.767Z,9.10
2019-04-22T23:36:08.692Z,9.10
2019-04-22T23:41:05.280Z,9.10
